Terminal Aerodrome Forecast
Issued by NWS Charleston, SC

Home | Current Version | Previous Version | Text Only | Print | Product List | Glossary On
Versions: 1 2 3 4 5 6 7 8 9 10 11 12 13 14
000
FTUS42 KCHS 170520
TAFCHS
TAF
KCHS 170520Z 1706/1806 02011G17KT P6SM FEW060 SCT200
     FM171400 03014G21KT P6SM SCT250
     FM172200 04009KT P6SM FEW200=

USA.gov is the U.S. government's official web portal to all federal, state and local government web resources and services.